Sheridan, WY

2:21 PM MDT on August 20, 2014 (GMT -0600)
North Airport Area | Change Station
CLOSE
Current Station
Personal Weather Station
Location: Sheridan, WY
Elevation: 3917 ft
Nearby Weather Stations

Elev 3917 ft 44.78 °N, 106.97 °W | Updated 7 minutes ago

Overcast
Overcast
76.5 °F
Feels Like 78 °F
N
7.3
Wind Variable Wind from WNW

Today
High -- | Low -- °F
--% Chance of Precip.
Yesterday
High -- | Low -- °F
Precip. -- in
6:16 AM 8:05 PM
Waning Crescent, 19% visible
Pressure 29.75 in
Visibility 10.0 miles
Clouds Few 6000 ft
Mostly Cloudy 8000 ft
Overcast 10000 ft
Heat Index 78 °F
Dew Point 50 °F
Humidity 39%
Rainfall 0.00 in
Snow Depth Not available.
UV 3 out of 12
Pollen 8.70 out of 12
Air Quality Not available.
Flu Activity Not available.
METAR KSHR 201953Z AUTO 33013KT 10SM FEW060 BKN080 OVC100 25/08 A2987 RMK AO2 SLP073 T02500083

More Conditions Fewer Conditions

Pressure 29.75 in
Visibility 10.0 miles
Clouds Few 6000 ft
Mostly Cloudy 8000 ft
Overcast 10000 ft
Heat Index 78 °F
Dew Point 50 °F
Humidity 39%
Rainfall 0.00 in
Snow Depth Not available.
UV 3 out of 12
Pollen 8.70 out of 12
Air Quality Not available.
Flu Activity Not available.
METAR KSHR 201953Z AUTO 33013KT 10SM FEW060 BKN080 OVC100 25/08 A2987 RMK AO2 SLP073 T02500083

More Conditions Fewer Conditions

10-Day Weather Forecast

Almanac

Astronomy

Aug. 20, 2014 Rise Set
Actual Time 6:16 AM MDT 8:05 PM MDT
Civil Twilight 5:44 AM MDT 8:36 PM MDT
Nautical Twilight 5:06 AM MDT 9:14 PM MDT
Astronomical Twilight 4:24 AM MDT 9:56 PM MDT
Moon 1:53 AM MDT 4:57 PM MDT
Length of Visible Light 14h 51m
Length of Day
13h 49m
Tomorrow will be 2m 52s shorter.
Waning Crescent, 19% of the Moon is Illuminated
Today
Waning Crescent
Aug 25
New
Sep 2
First Quarter
Sep 8
Full
Sep 15
Last Quarter

Today's Extremes

State Highs State Lows

Community

WunderPhotos

Upload Photos

1,745,750 photos uploaded!

WunderBlogs® & News

By Dr. Jeff Masters
Director of Meteorology, Weather Underground
By Kari Strenfel
Meteorologist, Weather Underground
By Christopher C. Burt
Weather Historian, Weather Underground
August 20, 2014
August 20, 2014
August 20, 2014

Nearby

Snow Depth

Station Depth Elevation
Casper Mountain 0 in 7850 ft
Reno Hill 0 in 8500 ft
Thumb Divide 0 in 7980 ft
Gros Ventre Summit 0 in 8750 ft
Kendall R.S. 1 in 7740 ft

Earthquake Activity

City Distance Mag. Time & Date
No recent earthquake activity has been reported nearby.
Minimum magnitude displayed is 2.5.

Coastal Water Temperatures

Place Temperature
No Stations Reporting

Nearby Weather Stations